sensor_id;sensor_type;location;lat;lon;timestamp;P1;durP1;ratioP1;P2;durP2;ratioP2
15383;SDS011;7790;53.022;12.968;2023-03-23T00:01:53;1.27;;;0.90;;
15383;SDS011;7790;53.022;12.968;2023-03-23T00:05:55;1.10;;;1.00;;
15383;SDS011;7790;53.022;12.968;2023-03-23T00:09:59;0.80;;;0.80;;
15383;SDS011;7790;53.022;12.968;2023-03-23T00:14:02;1.60;;;0.90;;
15383;SDS011;7790;53.022;12.968;2023-03-23T00:18:03;1.33;;;0.90;;
15383;SDS011;7790;53.022;12.968;2023-03-23T00:22:05;1.20;;;1.10;;
15383;SDS011;7790;53.022;12.968;2023-03-23T00:26:06;1.20;;;0.83;;
15383;SDS011;7790;53.022;12.968;2023-03-23T00:30:08;1.03;;;0.90;;
15383;SDS011;7790;53.022;12.968;2023-03-23T00:34:12;1.03;;;0.97;;
15383;SDS011;7790;53.022;12.968;2023-03-23T00:38:19;1.33;;;0.90;;
15383;SDS011;7790;53.022;12.968;2023-03-23T00:42:21;0.93;;;0.93;;
15383;SDS011;7790;53.022;12.968;2023-03-23T00:46:23;1.07;;;0.90;;
15383;SDS011;7790;53.022;12.968;2023-03-23T00:50:24;0.70;;;0.70;;
15383;SDS011;7790;53.022;12.968;2023-03-23T00:54:26;0.70;;;0.70;;
15383;SDS011;7790;53.022;12.968;2023-03-23T00:58:28;0.73;;;0.73;;
15383;SDS011;7790;53.022;12.968;2023-03-23T01:02:28;0.90;;;0.87;;
15383;SDS011;7790;53.022;12.968;2023-03-23T01:06:30;2.33;;;0.93;;
15383;SDS011;7790;53.022;12.968;2023-03-23T01:10:36;0.70;;;0.70;;
15383;SDS011;7790;53.022;12.968;2023-03-23T01:14:39;1.47;;;1.10;;
15383;SDS011;7790;53.022;12.968;2023-03-23T01:18:41;1.13;;;0.90;;
15383;SDS011;7790;53.022;12.968;2023-03-23T01:22:42;0.90;;;0.80;;
15383;SDS011;7790;53.022;12.968;2023-03-23T01:26:43;1.37;;;1.00;;
15383;SDS011;7790;53.022;12.968;2023-03-23T01:30:44;1.23;;;0.77;;
15383;SDS011;7790;53.022;12.968;2023-03-23T01:34:45;1.13;;;0.90;;
15383;SDS011;7790;53.022;12.968;2023-03-23T01:38:46;1.83;;;0.87;;
15383;SDS011;7790;53.022;12.968;2023-03-23T01:42:48;0.83;;;0.83;;
15383;SDS011;7790;53.022;12.968;2023-03-23T01:46:50;0.97;;;0.87;;
15383;SDS011;7790;53.022;12.968;2023-03-23T01:50:55;0.97;;;0.87;;
15383;SDS011;7790;53.022;12.968;2023-03-23T01:54:57;0.70;;;0.70;;
15383;SDS011;7790;53.022;12.968;2023-03-23T01:58:59;1.30;;;0.90;;
15383;SDS011;7790;53.022;12.968;2023-03-23T02:03:00;2.07;;;0.90;;
15383;SDS011;7790;53.022;12.968;2023-03-23T02:07:06;0.73;;;0.73;;
15383;SDS011;7790;53.022;12.968;2023-03-23T02:11:11;1.23;;;0.93;;
15383;SDS011;7790;53.022;12.968;2023-03-23T02:15:16;0.97;;;0.80;;
15383;SDS011;7790;53.022;12.968;2023-03-23T02:19:39;0.70;;;0.70;;
15383;SDS011;7790;53.022;12.968;2023-03-23T02:37:03;0.80;;;0.80;;
15383;SDS011;7790;53.022;12.968;2023-03-23T02:42:24;1.90;;;0.77;;
15383;SDS011;7790;53.022;12.968;2023-03-23T02:46:05;0.97;;;0.80;;
15383;SDS011;7790;53.022;12.968;2023-03-23T02:50:09;0.80;;;0.80;;
15383;SDS011;7790;53.022;12.968;2023-03-23T02:54:13;0.70;;;0.70;;
15383;SDS011;7790;53.022;12.968;2023-03-23T02:58:17;2.10;;;0.90;;
15383;SDS011;7790;53.022;12.968;2023-03-23T03:02:21;0.70;;;0.70;;
15383;SDS011;7790;53.022;12.968;2023-03-23T03:06:37;0.77;;;0.77;;
15383;SDS011;7790;53.022;12.968;2023-03-23T03:10:54;0.80;;;0.80;;
15383;SDS011;7790;53.022;12.968;2023-03-23T03:19:38;1.80;;;0.63;;
15383;SDS011;7790;53.022;12.968;2023-03-23T03:23:43;0.73;;;0.63;;
15383;SDS011;7790;53.022;12.968;2023-03-23T03:27:46;0.80;;;0.80;;
15383;SDS011;7790;53.022;12.968;2023-03-23T03:31:58;1.43;;;0.70;;
15383;SDS011;7790;53.022;12.968;2023-03-23T03:36:03;0.80;;;0.80;;
15383;SDS011;7790;53.022;12.968;2023-03-23T03:40:10;0.60;;;0.60;;
15383;SDS011;7790;53.022;12.968;2023-03-23T03:44:15;0.50;;;0.50;;
15383;SDS011;7790;53.022;12.968;2023-03-23T03:48:16;0.73;;;0.60;;
15383;SDS011;7790;53.022;12.968;2023-03-23T03:52:17;0.60;;;0.60;;
15383;SDS011;7790;53.022;12.968;2023-03-23T03:56:18;0.63;;;0.60;;
15383;SDS011;7790;53.022;12.968;2023-03-23T04:00:31;0.60;;;0.60;;
15383;SDS011;7790;53.022;12.968;2023-03-23T04:04:32;0.70;;;0.70;;
15383;SDS011;7790;53.022;12.968;2023-03-23T04:08:35;1.70;;;0.67;;
15383;SDS011;7790;53.022;12.968;2023-03-23T04:12:38;1.80;;;0.90;;
15383;SDS011;7790;53.022;12.968;2023-03-23T04:16:58;3.90;;;1.10;;
15383;SDS011;7790;53.022;12.968;2023-03-23T04:21:00;3.00;;;0.93;;
15383;SDS011;7790;53.022;12.968;2023-03-23T04:25:03;4.23;;;1.10;;
15383;SDS011;7790;53.022;12.968;2023-03-23T04:29:09;1.60;;;0.70;;
15383;SDS011;7790;53.022;12.968;2023-03-23T04:33:31;2.00;;;1.07;;
15383;SDS011;7790;53.022;12.968;2023-03-23T04:37:34;0.93;;;0.83;;
15383;SDS011;7790;53.022;12.968;2023-03-23T04:41:37;1.80;;;0.63;;
15383;SDS011;7790;53.022;12.968;2023-03-23T04:45:57;1.40;;;0.80;;
15383;SDS011;7790;53.022;12.968;2023-03-23T04:50:01;0.80;;;0.80;;
15383;SDS011;7790;53.022;12.968;2023-03-23T04:54:09;1.33;;;0.90;;
15383;SDS011;7790;53.022;12.968;2023-03-23T04:58:12;1.23;;;0.90;;
15383;SDS011;7790;53.022;12.968;2023-03-23T05:02:32;0.60;;;0.60;;
15383;SDS011;7790;53.022;12.968;2023-03-23T05:06:34;1.23;;;0.83;;
15383;SDS011;7790;53.022;12.968;2023-03-23T05:10:49;0.80;;;0.80;;
15383;SDS011;7790;53.022;12.968;2023-03-23T05:14:57;0.70;;;0.70;;
15383;SDS011;7790;53.022;12.968;2023-03-23T05:19:00;0.93;;;0.90;;
15383;SDS011;7790;53.022;12.968;2023-03-23T05:23:03;3.63;;;0.63;;
15383;SDS011;7790;53.022;12.968;2023-03-23T05:27:09;1.10;;;0.80;;
15383;SDS011;7790;53.022;12.968;2023-03-23T05:31:14;3.83;;;1.00;;
15383;SDS011;7790;53.022;12.968;2023-03-23T05:35:16;14.93;;;1.43;;
15383;SDS011;7790;53.022;12.968;2023-03-23T05:39:18;3.97;;;0.93;;
15383;SDS011;7790;53.022;12.968;2023-03-23T05:43:40;6.57;;;1.30;;
15383;SDS011;7790;53.022;12.968;2023-03-23T05:47:54;8.33;;;1.10;;
15383;SDS011;7790;53.022;12.968;2023-03-23T05:51:55;6.87;;;1.23;;
15383;SDS011;7790;53.022;12.968;2023-03-23T05:56:00;3.60;;;1.00;;
15383;SDS011;7790;53.022;12.968;2023-03-23T06:00:32;8.67;;;2.20;;
15383;SDS011;7790;53.022;12.968;2023-03-23T06:04:46;4.30;;;1.87;;
15383;SDS011;7790;53.022;12.968;2023-03-23T06:09:00;2.07;;;1.47;;
15383;SDS011;7790;53.022;12.968;2023-03-23T06:13:14;4.20;;;1.50;;
15383;SDS011;7790;53.022;12.968;2023-03-23T06:17:21;4.20;;;1.57;;
15383;SDS011;7790;53.022;12.968;2023-03-23T06:21:26;3.20;;;1.63;;
15383;SDS011;7790;53.022;12.968;2023-03-23T06:25:30;2.70;;;1.57;;
15383;SDS011;7790;53.022;12.968;2023-03-23T06:29:32;3.63;;;1.20;;
15383;SDS011;7790;53.022;12.968;2023-03-23T06:33:34;1.70;;;1.30;;
15383;SDS011;7790;53.022;12.968;2023-03-23T06:38:02;3.90;;;1.00;;
15383;SDS011;7790;53.022;12.968;2023-03-23T06:42:11;2.67;;;1.30;;
15383;SDS011;7790;53.022;12.968;2023-03-23T06:46:18;2.50;;;1.20;;
15383;SDS011;7790;53.022;12.968;2023-03-23T06:50:29;2.20;;;1.03;;
15383;SDS011;7790;53.022;12.968;2023-03-23T06:54:30;1.53;;;1.20;;
15383;SDS011;7790;53.022;12.968;2023-03-23T06:58:33;1.37;;;1.20;;
15383;SDS011;7790;53.022;12.968;2023-03-23T07:02:35;1.20;;;1.10;;
15383;SDS011;7790;53.022;12.968;2023-03-23T07:06:36;2.03;;;1.00;;
15383;SDS011;7790;53.022;12.968;2023-03-23T07:10:40;1.87;;;1.40;;
15383;SDS011;7790;53.022;12.968;2023-03-23T07:14:42;2.00;;;1.10;;
15383;SDS011;7790;53.022;12.968;2023-03-23T07:18:43;2.00;;;1.20;;
15383;SDS011;7790;53.022;12.968;2023-03-23T07:22:45;1.10;;;1.00;;
15383;SDS011;7790;53.022;12.968;2023-03-23T07:27:09;1.00;;;1.00;;
15383;SDS011;7790;53.022;12.968;2023-03-23T07:31:12;2.37;;;1.17;;
15383;SDS011;7790;53.022;12.968;2023-03-23T07:35:13;1.73;;;1.10;;
15383;SDS011;7790;53.022;12.968;2023-03-23T07:39:28;0.77;;;0.77;;
15383;SDS011;7790;53.022;12.968;2023-03-23T07:43:33;1.73;;;0.90;;
15383;SDS011;7790;53.022;12.968;2023-03-23T07:47:53;0.90;;;0.90;;
15383;SDS011;7790;53.022;12.968;2023-03-23T07:51:55;1.03;;;0.93;;
15383;SDS011;7790;53.022;12.968;2023-03-23T07:55:57;2.00;;;0.83;;
15383;SDS011;7790;53.022;12.968;2023-03-23T08:00:09;0.80;;;0.80;;
15383;SDS011;7790;53.022;12.968;2023-03-23T08:04:21;0.93;;;0.90;;
15383;SDS011;7790;53.022;12.968;2023-03-23T08:08:41;0.97;;;0.83;;
15383;SDS011;7790;53.022;12.968;2023-03-23T08:13:00;1.23;;;1.00;;
15383;SDS011;7790;53.022;12.968;2023-03-23T08:17:21;1.00;;;0.80;;
15383;SDS011;7790;53.022;12.968;2023-03-23T08:21:41;1.13;;;0.70;;
15383;SDS011;7790;53.022;12.968;2023-03-23T08:26:01;0.80;;;0.80;;
15383;SDS011;7790;53.022;12.968;2023-03-23T08:30:19;0.80;;;0.60;;
15383;SDS011;7790;53.022;12.968;2023-03-23T08:34:48;0.87;;;0.87;;
15383;SDS011;7790;53.022;12.968;2023-03-23T08:39:15;1.00;;;0.90;;
15383;SDS011;7790;53.022;12.968;2023-03-23T08:43:36;0.80;;;0.70;;
15383;SDS011;7790;53.022;12.968;2023-03-23T08:47:52;1.10;;;0.80;;
15383;SDS011;7790;53.022;12.968;2023-03-23T08:52:14;0.83;;;0.77;;
15383;SDS011;7790;53.022;12.968;2023-03-23T08:56:32;1.10;;;0.80;;
15383;SDS011;7790;53.022;12.968;2023-03-23T09:00:58;0.90;;;0.80;;
15383;SDS011;7790;53.022;12.968;2023-03-23T09:05:24;0.77;;;0.77;;
15383;SDS011;7790;53.022;12.968;2023-03-23T09:09:37;0.50;;;0.47;;
15383;SDS011;7790;53.022;12.968;2023-03-23T09:13:42;0.70;;;0.50;;
15383;SDS011;7790;53.022;12.968;2023-03-23T09:17:44;0.70;;;0.67;;
15383;SDS011;7790;53.022;12.968;2023-03-23T09:21:47;0.63;;;0.63;;
15383;SDS011;7790;53.022;12.968;2023-03-23T09:25:48;0.97;;;0.80;;
15383;SDS011;7790;53.022;12.968;2023-03-23T09:29:49;0.50;;;0.50;;
15383;SDS011;7790;53.022;12.968;2023-03-23T09:33:51;0.70;;;0.70;;
15383;SDS011;7790;53.022;12.968;2023-03-23T09:37:53;1.33;;;0.80;;
15383;SDS011;7790;53.022;12.968;2023-03-23T09:41:58;0.50;;;0.50;;
15383;SDS011;7790;53.022;12.968;2023-03-23T09:46:11;0.63;;;0.63;;
15383;SDS011;7790;53.022;12.968;2023-03-23T09:50:32;0.50;;;0.50;;
15383;SDS011;7790;53.022;12.968;2023-03-23T09:54:38;0.70;;;0.70;;
15383;SDS011;7790;53.022;12.968;2023-03-23T10:06:56;0.90;;;0.50;;
15383;SDS011;7790;53.022;12.968;2023-03-23T10:11:31;0.70;;;0.67;;
15383;SDS011;7790;53.022;12.968;2023-03-23T10:15:43;0.70;;;0.70;;
15383;SDS011;7790;53.022;12.968;2023-03-23T10:23:58;0.60;;;0.60;;
15383;SDS011;7790;53.022;12.968;2023-03-23T10:28:09;0.70;;;0.70;;
15383;SDS011;7790;53.022;12.968;2023-03-23T10:32:14;0.70;;;0.70;;
15383;SDS011;7790;53.022;12.968;2023-03-23T10:36:27;0.47;;;0.40;;
15383;SDS011;7790;53.022;12.968;2023-03-23T10:40:32;0.80;;;0.80;;
15383;SDS011;7790;53.022;12.968;2023-03-23T10:44:36;0.60;;;0.60;;
15383;SDS011;7790;53.022;12.968;2023-03-23T10:48:38;0.77;;;0.50;;
15383;SDS011;7790;53.022;12.968;2023-03-23T10:52:40;0.67;;;0.63;;
15383;SDS011;7790;53.022;12.968;2023-03-23T10:56:43;0.47;;;0.47;;
15383;SDS011;7790;53.022;12.968;2023-03-23T11:00:47;0.70;;;0.70;;
15383;SDS011;7790;53.022;12.968;2023-03-23T11:05:02;0.77;;;0.77;;
15383;SDS011;7790;53.022;12.968;2023-03-23T11:13:17;0.57;;;0.50;;
15383;SDS011;7790;53.022;12.968;2023-03-23T11:17:26;0.63;;;0.63;;
15383;SDS011;7790;53.022;12.968;2023-03-23T11:21:28;0.50;;;0.50;;
15383;SDS011;7790;53.022;12.968;2023-03-23T11:25:29;0.60;;;0.60;;
15383;SDS011;7790;53.022;12.968;2023-03-23T11:29:29;0.60;;;0.60;;
15383;SDS011;7790;53.022;12.968;2023-03-23T11:37:54;0.60;;;0.60;;
15383;SDS011;7790;53.022;12.968;2023-03-23T11:41:58;0.67;;;0.67;;
15383;SDS011;7790;53.022;12.968;2023-03-23T11:46:18;0.60;;;0.60;;
15383;SDS011;7790;53.022;12.968;2023-03-23T11:50:34;0.60;;;0.60;;
15383;SDS011;7790;53.022;12.968;2023-03-23T11:54:50;0.50;;;0.50;;
15383;SDS011;7790;53.022;12.968;2023-03-23T11:58:57;0.60;;;0.60;;
15383;SDS011;7790;53.022;12.968;2023-03-23T12:11:58;0.50;;;0.50;;
15383;SDS011;7790;53.022;12.968;2023-03-23T12:16:31;0.50;;;0.50;;
15383;SDS011;7790;53.022;12.968;2023-03-23T12:41:49;0.30;;;0.30;;
15383;SDS011;7790;53.022;12.968;2023-03-23T12:46:53;0.50;;;0.50;;
15383;SDS011;7790;53.022;12.968;2023-03-23T12:50:42;0.50;;;0.50;;
15383;SDS011;7790;53.022;12.968;2023-03-23T12:55:04;0.50;;;0.50;;
15383;SDS011;7790;53.022;12.968;2023-03-23T12:59:21;0.87;;;0.40;;
15383;SDS011;7790;53.022;12.968;2023-03-23T13:03:35;0.30;;;0.30;;
15383;SDS011;7790;53.022;12.968;2023-03-23T13:08:00;0.57;;;0.57;;
15383;SDS011;7790;53.022;12.968;2023-03-23T13:12:09;0.27;;;0.27;;
15383;SDS011;7790;53.022;12.968;2023-03-23T13:16:54;0.60;;;0.60;;
15383;SDS011;7790;53.022;12.968;2023-03-23T13:25:21;0.30;;;0.30;;
15383;SDS011;7790;53.022;12.968;2023-03-23T13:29:44;0.50;;;0.50;;
15383;SDS011;7790;53.022;12.968;2023-03-23T13:33:50;0.50;;;0.50;;
15383;SDS011;7790;53.022;12.968;2023-03-23T13:37:53;0.40;;;0.40;;
15383;SDS011;7790;53.022;12.968;2023-03-23T13:42:02;0.60;;;0.60;;
15383;SDS011;7790;53.022;12.968;2023-03-23T13:58:47;0.40;;;0.40;;
15383;SDS011;7790;53.022;12.968;2023-03-23T14:07:28;0.53;;;0.40;;
15383;SDS011;7790;53.022;12.968;2023-03-23T14:11:29;0.53;;;0.53;;
15383;SDS011;7790;53.022;12.968;2023-03-23T14:15:37;0.40;;;0.30;;
15383;SDS011;7790;53.022;12.968;2023-03-23T14:19:50;0.40;;;0.40;;
15383;SDS011;7790;53.022;12.968;2023-03-23T14:24:03;0.50;;;0.50;;
15383;SDS011;7790;53.022;12.968;2023-03-23T14:28:18;0.33;;;0.33;;
15383;SDS011;7790;53.022;12.968;2023-03-23T14:32:21;1.57;;;0.50;;
15383;SDS011;7790;53.022;12.968;2023-03-23T14:36:27;0.47;;;0.40;;
15383;SDS011;7790;53.022;12.968;2023-03-23T14:40:30;1.03;;;0.50;;
15383;SDS011;7790;53.022;12.968;2023-03-23T14:44:31;0.40;;;0.40;;
15383;SDS011;7790;53.022;12.968;2023-03-23T14:48:34;0.40;;;0.40;;
15383;SDS011;7790;53.022;12.968;2023-03-23T14:52:37;0.40;;;0.40;;
15383;SDS011;7790;53.022;12.968;2023-03-23T14:56:38;0.40;;;0.40;;
15383;SDS011;7790;53.022;12.968;2023-03-23T15:00:45;0.40;;;0.40;;
15383;SDS011;7790;53.022;12.968;2023-03-23T15:05:13;0.40;;;0.40;;
15383;SDS011;7790;53.022;12.968;2023-03-23T15:09:23;0.30;;;0.30;;
15383;SDS011;7790;53.022;12.968;2023-03-23T15:13:25;0.30;;;0.30;;
15383;SDS011;7790;53.022;12.968;2023-03-23T15:17:27;0.30;;;0.30;;
15383;SDS011;7790;53.022;12.968;2023-03-23T15:25:34;0.50;;;0.40;;
15383;SDS011;7790;53.022;12.968;2023-03-23T15:29:51;0.40;;;0.33;;
15383;SDS011;7790;53.022;12.968;2023-03-23T15:33:55;0.60;;;0.60;;
15383;SDS011;7790;53.022;12.968;2023-03-23T15:38:03;0.20;;;0.20;;
15383;SDS011;7790;53.022;12.968;2023-03-23T15:42:06;0.50;;;0.40;;
15383;SDS011;7790;53.022;12.968;2023-03-23T15:46:21;0.40;;;0.40;;
15383;SDS011;7790;53.022;12.968;2023-03-23T15:54:29;0.50;;;0.50;;
15383;SDS011;7790;53.022;12.968;2023-03-23T15:58:32;0.40;;;0.40;;
15383;SDS011;7790;53.022;12.968;2023-03-23T16:02:34;0.43;;;0.30;;
15383;SDS011;7790;53.022;12.968;2023-03-23T16:06:36;0.87;;;0.43;;
15383;SDS011;7790;53.022;12.968;2023-03-23T16:10:37;0.20;;;0.20;;
15383;SDS011;7790;53.022;12.968;2023-03-23T16:14:39;0.40;;;0.40;;
15383;SDS011;7790;53.022;12.968;2023-03-23T16:18:40;0.40;;;0.33;;
15383;SDS011;7790;53.022;12.968;2023-03-23T16:22:41;0.50;;;0.50;;
15383;SDS011;7790;53.022;12.968;2023-03-23T16:26:42;0.30;;;0.20;;
15383;SDS011;7790;53.022;12.968;2023-03-23T16:30:43;0.83;;;0.33;;
15383;SDS011;7790;53.022;12.968;2023-03-23T16:34:47;1.07;;;0.30;;
15383;SDS011;7790;53.022;12.968;2023-03-23T16:38:48;0.40;;;0.30;;
15383;SDS011;7790;53.022;12.968;2023-03-23T16:42:49;1.47;;;0.40;;
15383;SDS011;7790;53.022;12.968;2023-03-23T16:46:50;3.10;;;0.90;;
15383;SDS011;7790;53.022;12.968;2023-03-23T16:50:52;0.87;;;0.50;;
15383;SDS011;7790;53.022;12.968;2023-03-23T16:54:53;3.93;;;0.97;;
15383;SDS011;7790;53.022;12.968;2023-03-23T16:58:54;3.80;;;0.60;;
15383;SDS011;7790;53.022;12.968;2023-03-23T17:02:55;10.03;;;1.03;;
15383;SDS011;7790;53.022;12.968;2023-03-23T17:06:57;3.63;;;1.07;;
15383;SDS011;7790;53.022;12.968;2023-03-23T17:10:58;5.17;;;1.20;;
15383;SDS011;7790;53.022;12.968;2023-03-23T17:14:59;12.38;;;1.73;;
15383;SDS011;7790;53.022;12.968;2023-03-23T17:19:00;11.17;;;1.63;;
15383;SDS011;7790;53.022;12.968;2023-03-23T17:23:01;5.03;;;1.07;;
15383;SDS011;7790;53.022;12.968;2023-03-23T17:27:02;4.43;;;1.30;;
15383;SDS011;7790;53.022;12.968;2023-03-23T17:31:03;5.67;;;1.47;;
15383;SDS011;7790;53.022;12.968;2023-03-23T17:35:05;5.23;;;1.17;;
15383;SDS011;7790;53.022;12.968;2023-03-23T17:39:06;6.40;;;1.30;;
15383;SDS011;7790;53.022;12.968;2023-03-23T17:43:07;5.70;;;1.10;;
15383;SDS011;7790;53.022;12.968;2023-03-23T17:47:08;11.10;;;2.30;;
15383;SDS011;7790;53.022;12.968;2023-03-23T17:51:10;6.80;;;1.50;;
15383;SDS011;7790;53.022;12.968;2023-03-23T17:55:11;11.40;;;1.70;;
15383;SDS011;7790;53.022;12.968;2023-03-23T17:59:12;4.13;;;1.27;;
15383;SDS011;7790;53.022;12.968;2023-03-23T18:03:13;2.80;;;1.03;;
15383;SDS011;7790;53.022;12.968;2023-03-23T18:07:14;5.97;;;1.17;;
15383;SDS011;7790;53.022;12.968;2023-03-23T18:11:15;5.20;;;1.50;;
15383;SDS011;7790;53.022;12.968;2023-03-23T18:15:16;8.73;;;1.67;;
15383;SDS011;7790;53.022;12.968;2023-03-23T18:19:17;3.77;;;1.20;;
15383;SDS011;7790;53.022;12.968;2023-03-23T18:23:18;6.07;;;1.00;;
15383;SDS011;7790;53.022;12.968;2023-03-23T18:27:19;2.33;;;1.10;;
15383;SDS011;7790;53.022;12.968;2023-03-23T18:31:20;2.00;;;0.90;;
15383;SDS011;7790;53.022;12.968;2023-03-23T18:35:21;2.73;;;1.00;;
15383;SDS011;7790;53.022;12.968;2023-03-23T18:39:23;4.83;;;1.03;;
15383;SDS011;7790;53.022;12.968;2023-03-23T18:43:23;1.70;;;1.10;;
15383;SDS011;7790;53.022;12.968;2023-03-23T18:47:25;1.53;;;0.90;;
15383;SDS011;7790;53.022;12.968;2023-03-23T18:51:26;3.47;;;1.03;;
15383;SDS011;7790;53.022;12.968;2023-03-23T18:55:27;0.93;;;0.70;;
15383;SDS011;7790;53.022;12.968;2023-03-23T18:59:28;1.57;;;0.80;;
15383;SDS011;7790;53.022;12.968;2023-03-23T19:03:35;2.23;;;1.20;;
15383;SDS011;7790;53.022;12.968;2023-03-23T19:07:36;1.20;;;1.00;;
15383;SDS011;7790;53.022;12.968;2023-03-23T19:11:37;2.50;;;1.00;;
15383;SDS011;7790;53.022;12.968;2023-03-23T19:15:38;2.70;;;0.83;;
15383;SDS011;7790;53.022;12.968;2023-03-23T19:19:40;1.07;;;0.83;;
15383;SDS011;7790;53.022;12.968;2023-03-23T19:23:41;1.90;;;1.00;;
15383;SDS011;7790;53.022;12.968;2023-03-23T19:27:42;1.80;;;1.00;;
15383;SDS011;7790;53.022;12.968;2023-03-23T19:31:43;1.10;;;0.80;;
15383;SDS011;7790;53.022;12.968;2023-03-23T19:35:46;2.47;;;0.80;;
15383;SDS011;7790;53.022;12.968;2023-03-23T19:39:49;1.37;;;0.90;;
15383;SDS011;7790;53.022;12.968;2023-03-23T19:43:50;1.73;;;1.23;;
15383;SDS011;7790;53.022;12.968;2023-03-23T19:47:51;1.70;;;1.00;;
15383;SDS011;7790;53.022;12.968;2023-03-23T19:51:52;1.97;;;1.00;;
15383;SDS011;7790;53.022;12.968;2023-03-23T19:55:54;1.37;;;0.80;;
15383;SDS011;7790;53.022;12.968;2023-03-23T19:59:55;1.03;;;0.80;;
15383;SDS011;7790;53.022;12.968;2023-03-23T20:03:56;2.87;;;0.60;;
15383;SDS011;7790;53.022;12.968;2023-03-23T20:07:57;2.33;;;0.70;;
15383;SDS011;7790;53.022;12.968;2023-03-23T20:11:57;3.30;;;0.80;;
15383;SDS011;7790;53.022;12.968;2023-03-23T20:15:58;2.03;;;0.77;;
15383;SDS011;7790;53.022;12.968;2023-03-23T20:19:59;2.03;;;0.70;;
15383;SDS011;7790;53.022;12.968;2023-03-23T20:24:00;2.80;;;1.10;;
15383;SDS011;7790;53.022;12.968;2023-03-23T20:28:03;2.80;;;0.80;;
15383;SDS011;7790;53.022;12.968;2023-03-23T20:32:04;3.20;;;1.03;;
15383;SDS011;7790;53.022;12.968;2023-03-23T20:36:06;5.70;;;1.20;;
15383;SDS011;7790;53.022;12.968;2023-03-23T20:40:09;2.73;;;0.90;;
15383;SDS011;7790;53.022;12.968;2023-03-23T20:44:13;3.33;;;0.80;;
15383;SDS011;7790;53.022;12.968;2023-03-23T20:48:14;1.90;;;0.70;;
15383;SDS011;7790;53.022;12.968;2023-03-23T20:52:16;2.93;;;1.00;;
15383;SDS011;7790;53.022;12.968;2023-03-23T20:56:17;2.63;;;0.97;;
15383;SDS011;7790;53.022;12.968;2023-03-23T21:00:18;2.73;;;1.00;;
15383;SDS011;7790;53.022;12.968;2023-03-23T21:04:21;1.77;;;0.80;;
15383;SDS011;7790;53.022;12.968;2023-03-23T21:08:26;1.10;;;0.80;;
15383;SDS011;7790;53.022;12.968;2023-03-23T21:12:28;1.17;;;0.80;;
15383;SDS011;7790;53.022;12.968;2023-03-23T21:16:29;0.73;;;0.60;;
15383;SDS011;7790;53.022;12.968;2023-03-23T21:20:30;2.40;;;0.87;;
15383;SDS011;7790;53.022;12.968;2023-03-23T21:24:31;1.27;;;0.70;;
15383;SDS011;7790;53.022;12.968;2023-03-23T21:28:32;0.77;;;0.60;;
15383;SDS011;7790;53.022;12.968;2023-03-23T21:32:33;3.20;;;0.83;;
15383;SDS011;7790;53.022;12.968;2023-03-23T21:36:34;0.77;;;0.60;;
15383;SDS011;7790;53.022;12.968;2023-03-23T21:40:35;2.63;;;0.40;;
15383;SDS011;7790;53.022;12.968;2023-03-23T21:44:35;2.30;;;0.60;;
15383;SDS011;7790;53.022;12.968;2023-03-23T21:48:38;1.27;;;0.73;;
15383;SDS011;7790;53.022;12.968;2023-03-23T21:52:40;1.10;;;0.80;;
15383;SDS011;7790;53.022;12.968;2023-03-23T21:56:42;0.87;;;0.60;;
15383;SDS011;7790;53.022;12.968;2023-03-23T22:00:43;0.77;;;0.57;;
15383;SDS011;7790;53.022;12.968;2023-03-23T22:04:48;2.10;;;0.90;;
15383;SDS011;7790;53.022;12.968;2023-03-23T22:08:51;1.17;;;0.80;;
15383;SDS011;7790;53.022;12.968;2023-03-23T22:12:53;1.40;;;0.67;;
15383;SDS011;7790;53.022;12.968;2023-03-23T22:16:54;0.57;;;0.57;;
15383;SDS011;7790;53.022;12.968;2023-03-23T22:20:55;1.23;;;0.60;;
15383;SDS011;7790;53.022;12.968;2023-03-23T22:24:58;0.40;;;0.40;;
15383;SDS011;7790;53.022;12.968;2023-03-23T22:28:59;1.97;;;0.50;;
15383;SDS011;7790;53.022;12.968;2023-03-23T22:33:00;0.50;;;0.43;;
15383;SDS011;7790;53.022;12.968;2023-03-23T22:37:02;0.60;;;0.60;;
15383;SDS011;7790;53.022;12.968;2023-03-23T22:41:05;0.50;;;0.50;;
15383;SDS011;7790;53.022;12.968;2023-03-23T22:45:07;0.50;;;0.47;;
15383;SDS011;7790;53.022;12.968;2023-03-23T22:49:09;0.53;;;0.37;;
15383;SDS011;7790;53.022;12.968;2023-03-23T22:53:10;0.60;;;0.60;;
15383;SDS011;7790;53.022;12.968;2023-03-23T22:57:10;0.70;;;0.70;;
15383;SDS011;7790;53.022;12.968;2023-03-23T23:01:16;0.73;;;0.60;;
15383;SDS011;7790;53.022;12.968;2023-03-23T23:05:19;1.07;;;0.50;;
15383;SDS011;7790;53.022;12.968;2023-03-23T23:09:20;0.63;;;0.50;;
15383;SDS011;7790;53.022;12.968;2023-03-23T23:13:21;0.53;;;0.53;;
15383;SDS011;7790;53.022;12.968;2023-03-23T23:17:23;1.60;;;0.60;;
15383;SDS011;7790;53.022;12.968;2023-03-23T23:21:25;0.63;;;0.50;;
15383;SDS011;7790;53.022;12.968;2023-03-23T23:25:28;0.80;;;0.80;;
15383;SDS011;7790;53.022;12.968;2023-03-23T23:29:29;1.43;;;0.70;;
15383;SDS011;7790;53.022;12.968;2023-03-23T23:33:31;1.80;;;0.70;;
15383;SDS011;7790;53.022;12.968;2023-03-23T23:37:31;0.40;;;0.40;;
15383;SDS011;7790;53.022;12.968;2023-03-23T23:41:33;1.70;;;0.50;;
15383;SDS011;7790;53.022;12.968;2023-03-23T23:45:34;0.70;;;0.70;;
15383;SDS011;7790;53.022;12.968;2023-03-23T23:49:36;0.50;;;0.50;;
15383;SDS011;7790;53.022;12.968;2023-03-23T23:53:36;0.40;;;0.40;;
15383;SDS011;7790;53.022;12.968;2023-03-23T23:57:38;0.43;;;0.43;;
